createdAt,value
2022-07-25T00:03:36.091Z,99.90
2022-07-25T00:10:21.499Z,99.90
2022-07-25T00:17:04.037Z,99.90
2022-07-25T00:23:46.517Z,99.90
2022-07-25T00:30:29.016Z,99.90
2022-07-25T00:37:11.403Z,99.90
2022-07-25T00:43:53.973Z,99.90
2022-07-25T00:50:36.757Z,99.90
2022-07-25T00:57:19.197Z,99.90
2022-07-25T01:04:02.679Z,99.90
2022-07-25T01:10:46.866Z,99.90
2022-07-25T01:17:29.318Z,99.90
2022-07-25T01:24:12.002Z,99.90
2022-07-25T01:30:54.662Z,99.90
2022-07-25T01:37:37.091Z,99.90
2022-07-25T01:44:19.803Z,99.90
2022-07-25T01:51:02.464Z,99.90
2022-07-25T01:57:49.897Z,99.90
2022-07-25T02:04:32.835Z,99.90
2022-07-25T02:11:15.328Z,99.90
2022-07-25T02:17:58.557Z,99.90
2022-07-25T02:24:41.114Z,99.90
2022-07-25T02:31:23.698Z,99.90
2022-07-25T02:38:06.235Z,99.90
2022-07-25T02:52:07.649Z,99.90
2022-07-25T02:58:49.992Z,99.90
2022-07-25T03:05:32.431Z,99.90
2022-07-25T03:12:14.771Z,99.90
2022-07-25T03:18:57.138Z,99.90
2022-07-25T03:25:39.553Z,99.90
2022-07-25T03:32:23.119Z,99.90
2022-07-25T03:39:05.808Z,99.90
2022-07-25T03:45:48.275Z,99.90
2022-07-25T03:52:30.964Z,99.90
2022-07-25T03:59:15.838Z,99.90
2022-07-25T04:05:58.163Z,99.90
2022-07-25T04:12:40.641Z,99.90
2022-07-25T04:19:23.011Z,99.90
2022-07-25T04:26:08.592Z,99.90
2022-07-25T04:32:51.223Z,99.90
2022-07-25T04:39:33.632Z,99.90
2022-07-25T04:46:20.399Z,99.90
2022-07-25T04:53:02.943Z,99.90
2022-07-25T04:59:45.435Z,99.90
2022-07-25T05:06:27.890Z,99.90
2022-07-25T05:13:10.245Z,99.90
2022-07-25T05:19:52.590Z,99.90
2022-07-25T05:26:35.169Z,94.20
2022-07-25T05:33:17.527Z,91.70
2022-07-25T05:40:00.428Z,89.30
2022-07-25T05:46:42.960Z,86.20
2022-07-25T05:53:25.935Z,84.40
2022-07-25T06:00:09.169Z,82.30
2022-07-25T06:06:52.111Z,80.20
2022-07-25T06:13:35.451Z,78.90
2022-07-25T06:20:18.443Z,77.20
2022-07-25T06:27:00.799Z,76.90
2022-07-25T06:33:43.396Z,77.60
2022-07-25T06:40:25.830Z,75.70
2022-07-25T06:47:12.532Z,75.10
2022-07-25T06:53:55.228Z,74.20
2022-07-25T07:07:56.776Z,72.60
2022-07-25T07:14:39.330Z,72.00
2022-07-25T07:21:21.935Z,72.20
2022-07-25T07:28:04.604Z,71.90
2022-07-25T07:34:47.147Z,72.00
2022-07-25T07:41:29.470Z,69.50
2022-07-25T07:48:12.044Z,68.20
2022-07-25T07:55:13.145Z,68.50
2022-07-25T08:01:55.580Z,67.20
2022-07-25T08:08:38.069Z,66.50
2022-07-25T08:22:46.853Z,65.10
2022-07-25T08:29:29.227Z,63.60
2022-07-25T08:36:11.630Z,63.70
2022-07-25T08:42:55.042Z,63.40
2022-07-25T08:49:37.484Z,62.40
2022-07-25T08:56:21.377Z,61.10
2022-07-25T09:03:06.423Z,60.50
2022-07-25T09:09:48.946Z,59.80
2022-07-25T09:16:34.015Z,58.00
2022-07-25T09:23:28.188Z,57.60
2022-07-25T09:30:15.377Z,57.90
2022-07-25T09:36:58.378Z,56.80
2022-07-25T09:43:42.670Z,56.20
2022-07-25T09:50:27.605Z,55.70
2022-07-25T09:57:10.240Z,53.20
2022-07-25T10:04:17.392Z,55.80
2022-07-25T10:10:59.880Z,54.90
2022-07-25T10:17:42.271Z,56.10
2022-07-25T10:24:34.143Z,56.10
2022-07-25T10:31:29.514Z,55.40
2022-07-25T10:38:12.085Z,53.10
2022-07-25T10:44:58.393Z,54.20
2022-07-25T10:51:51.475Z,54.70
2022-07-25T10:58:52.851Z,54.10
2022-07-25T11:13:04.034Z,56.50
2022-07-25T11:20:00.025Z,57.20
2022-07-25T11:26:51.564Z,57.50
2022-07-25T11:33:38.393Z,58.40
2022-07-25T11:40:22.699Z,58.30
2022-07-25T11:47:07.408Z,57.70
2022-07-25T11:53:51.290Z,57.70
2022-07-25T12:08:17.515Z,58.10
2022-07-25T12:14:59.884Z,58.00
2022-07-25T12:21:42.251Z,58.20
2022-07-25T12:28:24.860Z,57.30
2022-07-25T12:35:09.591Z,57.90
2022-07-25T12:41:52.115Z,57.90
2022-07-25T12:48:34.526Z,58.50
2022-07-25T12:55:19.383Z,59.00
2022-07-25T13:02:02.203Z,60.00
2022-07-25T13:08:45.602Z,60.20
2022-07-25T13:15:28.171Z,60.20
2022-07-25T13:22:10.799Z,60.30
2022-07-25T13:28:56.572Z,59.70
2022-07-25T13:35:42.122Z,59.90
2022-07-25T13:42:24.844Z,61.20
2022-07-25T13:49:08.192Z,60.90
2022-07-25T13:55:51.740Z,60.90
2022-07-25T14:02:52.528Z,59.00
2022-07-25T14:09:35.159Z,55.90
2022-07-25T14:16:19.115Z,57.00
2022-07-25T14:23:01.557Z,57.60
2022-07-25T14:29:44.090Z,59.40
2022-07-25T14:36:26.474Z,60.10
2022-07-25T14:43:09.099Z,60.50
2022-07-25T14:49:51.484Z,60.40
2022-07-25T14:56:34.206Z,60.60
2022-07-25T15:03:16.708Z,60.90
2022-07-25T15:09:59.245Z,60.80
2022-07-25T15:16:43.029Z,60.50
2022-07-25T15:23:29.696Z,60.90
2022-07-25T15:30:13.460Z,60.70
2022-07-25T15:36:56.192Z,61.30
2022-07-25T15:43:39.866Z,62.70
2022-07-25T15:50:23.183Z,63.80
2022-07-25T15:57:07.064Z,64.40
2022-07-25T16:03:49.734Z,65.00
2022-07-25T16:10:33.377Z,65.40
2022-07-25T16:17:15.818Z,65.50
2022-07-25T16:23:58.226Z,65.30
2022-07-25T16:30:40.641Z,65.30
2022-07-25T16:37:23.077Z,64.50
2022-07-25T16:44:06.834Z,63.80
2022-07-25T16:50:50.178Z,63.70
2022-07-25T16:57:32.621Z,63.40
2022-07-25T17:04:15.093Z,63.20
2022-07-25T17:10:57.747Z,63.20
2022-07-25T17:17:40.165Z,63.20
2022-07-25T17:24:22.507Z,63.30
2022-07-25T17:31:05.443Z,63.50
2022-07-25T17:37:47.940Z,64.20
2022-07-25T17:44:30.523Z,64.90
2022-07-25T17:51:12.951Z,65.10
2022-07-25T17:57:55.412Z,65.50
2022-07-25T18:04:37.799Z,65.40
2022-07-25T18:11:20.250Z,65.20
2022-07-25T18:18:02.907Z,65.60
2022-07-25T18:24:45.273Z,66.10
2022-07-25T18:31:27.917Z,66.40
2022-07-25T18:38:11.483Z,66.80
2022-07-25T18:44:53.828Z,67.50
2022-07-25T18:51:36.227Z,67.30
2022-07-25T18:58:18.577Z,67.10
2022-07-25T19:05:00.976Z,66.70
2022-07-25T19:11:43.936Z,66.60
2022-07-25T19:18:29.442Z,66.70
2022-07-25T19:25:12.042Z,66.90
2022-07-25T19:31:54.458Z,67.20
2022-07-25T19:38:36.793Z,67.30
2022-07-25T19:45:19.327Z,67.60
2022-07-25T19:52:02.106Z,67.90
2022-07-25T19:58:45.106Z,68.30
2022-07-25T20:05:27.448Z,68.80
2022-07-25T20:12:10.501Z,69.40
2022-07-25T20:18:53.506Z,69.80
2022-07-25T20:25:35.883Z,70.40
2022-07-25T20:32:18.287Z,70.80
2022-07-25T20:39:00.658Z,71.20
2022-07-25T20:45:45.823Z,71.40
2022-07-25T20:52:30.985Z,72.10
2022-07-25T20:59:13.520Z,72.30
2022-07-25T21:05:55.939Z,72.70
2022-07-25T21:12:38.487Z,73.20
2022-07-25T21:19:20.967Z,74.50
2022-07-25T21:26:03.406Z,76.10
2022-07-25T21:32:45.949Z,75.80
2022-07-25T21:39:28.437Z,77.50
2022-07-25T21:46:10.903Z,77.70
2022-07-25T21:52:53.994Z,79.60
2022-07-25T21:59:36.458Z,80.00
2022-07-25T22:06:19.282Z,79.80
2022-07-25T22:13:02.315Z,79.30
2022-07-25T22:19:45.325Z,79.30
2022-07-25T22:26:27.753Z,80.00
2022-07-25T22:33:10.112Z,81.30
2022-07-25T22:39:52.472Z,82.00
2022-07-25T22:46:38.999Z,83.50
2022-07-25T22:53:21.501Z,83.00
2022-07-25T23:00:07.563Z,84.50
2022-07-25T23:13:50.414Z,83.60
2022-07-25T23:20:32.787Z,83.90
2022-07-25T23:27:15.898Z,84.40
2022-07-25T23:33:58.394Z,84.60
2022-07-25T23:40:41.155Z,87.10
2022-07-25T23:47:26.813Z,85.80
2022-07-25T23:54:21.896Z,86.20
